Time;durP1;ratioP1;P1;durP2;ratioP2;P2;SDS_P1;SDS_P2;PMS_P1;PMS_P2;Temp;Humidity;BMP_temperature;BMP_pressure;BME280_temperature;BME280_humidity;BME280_pressure;Samples;Min_cycle;Max_cycle;Signal;HPM_P1;HPM_P2
2023/10/07 00:00:25;;;;;;;10.30;4.50;;;;;;;;;;4994932;28;20125;-66
2023/10/07 00:02:50;;;;;;;13.00;5.35;;;;;;;;;;4994530;28;20455;-66
2023/10/07 00:05:16;;;;;;;12.45;4.93;;;;;;;;;;4994523;28;20110;-66
2023/10/07 00:07:45;;;;;;;11.43;4.72;;;;;;;;;;4994765;28;20022;-66
2023/10/07 00:10:25;;;;;;;12.50;4.63;;;;;;;;;;4994338;28;20580;-66
2023/10/07 00:12:51;;;;;;;13.90;4.90;;;;;;;;;;4994566;28;20018;-66
2023/10/07 00:15:17;;;;;;;10.90;4.90;;;;;;;;;;4994337;28;20033;-66
2023/10/07 00:17:47;;;;;;;12.18;5.22;;;;;;;;;;4994328;28;20026;-66
2023/10/07 00:20:12;;;;;;;12.60;5.07;;;;;;;;;;4994405;28;20022;-66
2023/10/07 00:22:42;;;;;;;10.95;4.72;;;;;;;;;;4994236;28;20027;-67
2023/10/07 00:25:07;;;;;;;10.85;4.63;;;;;;;;;;4994243;28;20121;-66
2023/10/07 00:27:38;;;;;;;10.00;4.22;;;;;;;;;;4994184;28;20098;-67
2023/10/07 00:30:12;;;;;;;10.35;4.70;;;;;;;;;;4994135;28;20026;-66
2023/10/07 00:32:38;;;;;;;8.57;4.30;;;;;;;;;;4994160;28;20536;-66
2023/10/07 00:35:06;;;;;;;11.50;4.60;;;;;;;;;;4994357;28;20027;-66
2023/10/07 00:37:33;;;;;;;9.80;4.45;;;;;;;;;;4994337;28;20517;-66
2023/10/07 00:40:07;;;;;;;11.65;4.82;;;;;;;;;;4994323;28;20058;-67
2023/10/07 00:42:33;;;;;;;10.45;4.30;;;;;;;;;;4993891;28;20030;-66
2023/10/07 00:45:01;;;;;;;8.73;3.83;;;;;;;;;;4994033;28;20093;-66
2023/10/07 00:47:27;;;;;;;9.65;3.70;;;;;;;;;;4993889;28;20034;-66
2023/10/07 00:49:54;;;;;;;8.80;4.15;;;;;;;;;;4993961;28;20068;-66
2023/10/07 00:52:32;;;;;;;8.23;3.95;;;;;;;;;;4992703;28;20027;-66
2023/10/07 00:59:58;;;;;;;7.30;3.75;;;;;;;;;;4994137;28;20026;-66
2023/10/07 01:02:30;;;;;;;8.07;3.90;;;;;;;;;;4993729;28;20057;-66
2023/10/07 01:05:06;;;;;;;8.95;4.25;;;;;;;;;;4994095;28;20411;-67
2023/10/07 01:07:31;;;;;;;7.80;3.60;;;;;;;;;;4994039;28;20023;-66
2023/10/07 01:12:37;;;;;;;6.07;2.95;;;;;;;;;;4994059;28;20023;-66
2023/10/07 01:15:12;;;;;;;12.57;4.80;;;;;;;;;;4993765;28;20030;-66
2023/10/07 01:17:40;;;;;;;9.38;4.10;;;;;;;;;;4993698;28;20019;-66
2023/10/07 01:20:07;;;;;;;12.73;5.13;;;;;;;;;;4993963;28;20498;-66
2023/10/07 01:22:35;;;;;;;10.18;4.38;;;;;;;;;;4993864;28;20033;-67
2023/10/07 01:25:06;;;;;;;9.25;3.88;;;;;;;;;;4993895;28;20029;-67
2023/10/07 01:27:35;;;;;;;13.43;3.90;;;;;;;;;;4993608;28;20022;-67
2023/10/07 01:30:06;;;;;;;11.30;4.00;;;;;;;;;;4993807;28;20494;-67
2023/10/07 01:32:34;;;;;;;8.98;4.18;;;;;;;;;;4993574;28;20022;-67
2023/10/07 01:35:05;;;;;;;7.53;3.83;;;;;;;;;;4993780;28;20479;-67
2023/10/07 01:37:41;;;;;;;10.57;4.28;;;;;;;;;;4993464;28;20030;-67
2023/10/07 01:40:11;;;;;;;10.25;4.78;;;;;;;;;;4993456;28;20113;-67
2023/10/07 01:42:37;;;;;;;11.13;4.07;;;;;;;;;;4993679;28;20029;-67
2023/10/07 01:45:19;;;;;;;10.50;4.38;;;;;;;;;;4993642;28;20025;-67
2023/10/07 01:47:47;;;;;;;11.32;4.35;;;;;;;;;;4993694;28;20018;-67
2023/10/07 01:50:12;;;;;;;11.32;5.22;;;;;;;;;;4993650;28;20027;-67
2023/10/07 01:52:37;;;;;;;15.13;4.63;;;;;;;;;;4993384;28;20430;-67
2023/10/07 01:55:08;;;;;;;10.18;4.13;;;;;;;;;;4993272;28;20671;-67
2023/10/07 01:57:34;;;;;;;9.23;4.32;;;;;;;;;;4993345;28;20029;-67
2023/10/07 02:00:04;;;;;;;15.05;4.53;;;;;;;;;;4993287;28;20026;-67
2023/10/07 02:02:30;;;;;;;11.32;5.03;;;;;;;;;;4996146;28;20105;-67
2023/10/07 02:04:55;;;;;;;9.30;4.65;;;;;;;;;;4997029;28;20470;-67
2023/10/07 02:07:21;;;;;;;12.80;4.88;;;;;;;;;;4996798;28;20026;-67
2023/10/07 02:09:48;;;;;;;10.18;4.30;;;;;;;;;;4996700;28;20049;-67
2023/10/07 02:12:18;;;;;;;9.35;4.60;;;;;;;;;;4996929;28;20037;-67
2023/10/07 02:14:43;;;;;;;11.60;4.40;;;;;;;;;;4996630;28;20026;-67
2023/10/07 02:17:08;;;;;;;8.20;3.97;;;;;;;;;;4996589;28;20073;-67
2023/10/07 02:19:33;;;;;;;8.30;4.30;;;;;;;;;;4996577;28;20041;-67
2023/10/07 02:21:59;;;;;;;9.07;4.30;;;;;;;;;;4996450;28;20018;-67
2023/10/07 02:24:29;;;;;;;8.38;3.83;;;;;;;;;;4996458;28;20090;-67
2023/10/07 02:26:56;;;;;;;12.82;5.30;;;;;;;;;;4996365;28;20090;-67
2023/10/07 02:29:24;;;;;;;10.50;4.88;;;;;;;;;;4996313;28;20027;-67
2023/10/07 02:31:50;;;;;;;14.60;4.22;;;;;;;;;;4996492;28;20025;-66
2023/10/07 02:34:28;;;;;;;13.55;5.30;;;;;;;;;;4996563;28;20386;-66
2023/10/07 02:37:09;;;;;;;10.27;3.15;;;;;;;;;;4996236;28;20041;-67
2023/10/07 02:39:45;;;;;;;11.55;4.57;;;;;;;;;;4996429;28;20022;-66
2023/10/07 02:42:11;;;;;;;12.82;4.53;;;;;;;;;;4996053;28;20386;-66
2023/10/07 02:44:36;;;;;;;14.32;5.20;;;;;;;;;;4996066;28;20022;-66
2023/10/07 02:47:11;;;;;;;11.32;4.35;;;;;;;;;;4996340;28;20026;-67
2023/10/07 02:49:37;;;;;;;12.95;4.68;;;;;;;;;;4995959;28;20030;-67
2023/10/07 02:52:02;;;;;;;7.13;3.70;;;;;;;;;;4995923;28;20032;-67
2023/10/07 02:54:34;;;;;;;8.68;4.32;;;;;;;;;;4995792;28;20026;-66
2023/10/07 02:57:09;;;;;;;15.43;5.20;;;;;;;;;;4995921;28;20081;-67
2023/10/07 02:59:36;;;;;;;11.07;4.50;;;;;;;;;;4995759;28;20053;-66
2023/10/07 03:02:22;;;;;;;9.98;4.50;;;;;;;;;;4995753;28;20446;-66
2023/10/07 03:07:34;;;;;;;12.70;5.03;;;;;;;;;;4995980;28;20022;-66
2023/10/07 03:10:16;;;;;;;10.57;4.40;;;;;;;;;;4995528;28;20049;-66
2023/10/07 03:12:47;;;;;;;14.60;5.30;;;;;;;;;;4995613;28;20582;-66
2023/10/07 03:15:21;;;;;;;11.38;4.95;;;;;;;;;;4995478;28;20026;-66
2023/10/07 03:17:46;;;;;;;13.05;4.63;;;;;;;;;;4995445;28;20045;-66
2023/10/07 03:20:46;;;;;;;14.23;5.40;;;;;;;;;;4995958;28;20031;-66
2023/10/07 03:23:15;;;;;;;14.10;5.43;;;;;;;;;;4994966;28;20031;-66
2023/10/07 03:28:18;;;;;;;11.77;5.00;;;;;;;;;;4995278;28;20022;-66
2023/10/07 03:30:51;;;;;;;7.82;4.25;;;;;;;;;;4995496;28;20033;-66
2023/10/07 03:33:17;;;;;;;13.80;5.00;;;;;;;;;;4995416;28;20363;-66
2023/10/07 03:38:26;;;;;;;9.10;4.32;;;;;;;;;;4995360;28;20023;-66
2023/10/07 03:40:55;;;;;;;13.45;5.28;;;;;;;;;;4995053;28;20022;-66
2023/10/07 03:43:26;;;;;;;11.68;4.40;;;;;;;;;;4994936;28;20022;-66
2023/10/07 03:45:51;;;;;;;11.25;4.28;;;;;;;;;;4994964;28;20015;-66
2023/10/07 03:48:31;;;;;;;12.40;4.57;;;;;;;;;;4994880;28;20029;-66
2023/10/07 03:51:05;;;;;;;10.85;4.95;;;;;;;;;;4994787;28;20030;-66
2023/10/07 03:53:44;;;;;;;10.98;4.25;;;;;;;;;;4994770;28;20014;-66
2023/10/07 03:56:09;;;;;;;20.65;6.15;;;;;;;;;;4994720;28;20026;-66
2023/10/07 03:58:36;;;;;;;17.65;8.32;;;;;;;;;;4994668;28;20089;-66
2023/10/07 04:01:11;;;;;;;16.10;5.50;;;;;;;;;;4994533;28;20023;-67
2023/10/07 04:03:40;;;;;;;11.13;5.10;;;;;;;;;;4994591;28;20018;-66
2023/10/07 04:06:06;;;;;;;12.98;6.20;;;;;;;;;;4994583;28;20018;-66
2023/10/07 04:08:32;;;;;;;19.63;8.63;;;;;;;;;;4994805;28;20026;-66
2023/10/07 04:10:58;;;;;;;18.33;7.75;;;;;;;;;;4994316;28;20054;-66
2023/10/07 04:13:24;;;;;;;15.40;7.28;;;;;;;;;;4994437;28;20031;-66
2023/10/07 04:15:52;;;;;;;12.05;5.72;;;;;;;;;;4994314;28;20027;-66
2023/10/07 04:18:22;;;;;;;14.38;6.35;;;;;;;;;;4994504;28;20030;-66
2023/10/07 04:20:56;;;;;;;11.32;5.57;;;;;;;;;;4994301;28;20097;-66
2023/10/07 04:23:24;;;;;;;15.45;6.07;;;;;;;;;;4993933;28;20018;-66
2023/10/07 04:25:49;;;;;;;18.63;6.78;;;;;;;;;;4994468;28;20394;-66
2023/10/07 04:28:15;;;;;;;13.13;5.95;;;;;;;;;;4994226;28;20021;-67
2023/10/07 04:30:40;;;;;;;14.93;6.30;;;;;;;;;;4994159;28;20026;-66
2023/10/07 04:33:08;;;;;;;13.10;6.07;;;;;;;;;;4994165;28;20015;-66
2023/10/07 04:35:33;;;;;;;15.18;7.07;;;;;;;;;;4994129;28;20370;-66
2023/10/07 04:41:43;;;;;;;14.30;6.53;;;;;;;;;;4994015;28;20035;-66
2023/10/07 04:43:37;;;;;;;13.90;5.65;;;;;;;;;;4985081;28;20426;-67
2023/10/07 04:46:22;;;;;;;14.80;6.10;;;;;;;;;;4994283;28;20026;-66
2023/10/07 04:48:56;;;;;;;13.38;5.88;;;;;;;;;;4993897;28;20021;-66
2023/10/07 04:51:35;;;;;;;14.40;6.10;;;;;;;;;;4994100;28;20418;-66
2023/10/07 04:54:00;;;;;;;12.85;5.57;;;;;;;;;;4994124;28;20023;-66
2023/10/07 04:56:26;;;;;;;13.15;5.40;;;;;;;;;;4993857;28;20350;-66
2023/10/07 04:58:55;;;;;;;16.83;5.03;;;;;;;;;;4993914;28;20360;-66
2023/10/07 05:01:33;;;;;;;12.88;5.30;;;;;;;;;;4993817;28;20040;-66
2023/10/07 05:04:05;;;;;;;15.73;5.72;;;;;;;;;;4993814;28;20022;-66
2023/10/07 05:06:34;;;;;;;12.48;5.10;;;;;;;;;;4994054;28;20014;-66
2023/10/07 05:08:59;;;;;;;14.48;5.15;;;;;;;;;;4993601;28;20034;-66
2023/10/07 05:11:26;;;;;;;14.77;5.73;;;;;;;;;;4993800;28;20489;-66
2023/10/07 05:13:51;;;;;;;12.93;5.03;;;;;;;;;;4994007;28;20641;-66
2023/10/07 05:16:19;;;;;;;12.15;5.93;;;;;;;;;;4993698;28;20102;-66
2023/10/07 05:18:44;;;;;;;12.55;4.93;;;;;;;;;;4993654;28;20065;-66
2023/10/07 05:21:11;;;;;;;14.13;5.10;;;;;;;;;;4993824;28;20018;-66
2023/10/07 05:23:37;;;;;;;12.52;5.47;;;;;;;;;;4993902;28;20360;-66
2023/10/07 05:26:03;;;;;;;12.45;4.85;;;;;;;;;;4993661;28;20027;-66
2023/10/07 05:28:30;;;;;;;11.73;4.88;;;;;;;;;;4993460;28;20032;-66
2023/10/07 05:30:57;;;;;;;12.82;5.55;;;;;;;;;;4993840;28;20029;-66
2023/10/07 05:33:26;;;;;;;13.10;5.38;;;;;;;;;;4993802;28;20026;-66
2023/10/07 05:35:58;;;;;;;12.15;4.93;;;;;;;;;;4994384;28;20018;-66
2023/10/07 05:38:23;;;;;;;10.38;5.25;;;;;;;;;;4997591;28;20474;-66
2023/10/07 05:40:48;;;;;;;11.27;5.20;;;;;;;;;;4997227;28;20022;-66
2023/10/07 05:43:13;;;;;;;16.60;5.40;;;;;;;;;;4997282;28;20022;-66
2023/10/07 05:45:40;;;;;;;10.83;4.73;;;;;;;;;;4997192;28;20540;-66
2023/10/07 05:48:05;;;;;;;15.18;5.13;;;;;;;;;;4997394;28;20027;-66
2023/10/07 05:50:32;;;;;;;20.52;5.20;;;;;;;;;;4997138;28;20382;-67
2023/10/07 05:52:58;;;;;;;10.75;4.57;;;;;;;;;;4997023;28;20018;-66
2023/10/07 05:55:23;;;;;;;12.05;4.78;;;;;;;;;;4997050;28;20042;-66
2023/10/07 05:57:51;;;;;;;13.90;5.57;;;;;;;;;;4997066;28;20466;-66
2023/10/07 06:00:17;;;;;;;14.23;5.40;;;;;;;;;;4997224;28;20084;-66
2023/10/07 06:02:42;;;;;;;11.77;5.53;;;;;;;;;;4996904;28;20026;-67
2023/10/07 06:05:10;;;;;;;10.77;5.13;;;;;;;;;;4996891;28;20450;-67
2023/10/07 06:07:36;;;;;;;13.18;4.63;;;;;;;;;;4997066;28;20053;-66
2023/10/07 06:10:02;;;;;;;12.45;4.82;;;;;;;;;;4996683;28;20073;-66
2023/10/07 06:12:28;;;;;;;12.85;5.13;;;;;;;;;;4996619;28;20027;-66
2023/10/07 06:14:54;;;;;;;13.75;6.13;;;;;;;;;;4996672;28;20053;-66
2023/10/07 06:17:20;;;;;;;12.25;4.97;;;;;;;;;;4996896;28;20065;-66
2023/10/07 06:19:45;;;;;;;14.00;5.22;;;;;;;;;;4996877;28;20172;-66
2023/10/07 06:22:15;;;;;;;13.07;5.40;;;;;;;;;;4996463;28;20097;-66
2023/10/07 06:24:40;;;;;;;14.77;5.95;;;;;;;;;;4996522;28;20244;-66
2023/10/07 06:27:11;;;;;;;14.15;5.03;;;;;;;;;;4996432;28;20469;-66
2023/10/07 06:29:41;;;;;;;14.63;5.45;;;;;;;;;;4996321;28;20022;-66
2023/10/07 06:32:22;;;;;;;15.15;5.60;;;;;;;;;;4996628;28;20080;-66
2023/10/07 06:34:47;;;;;;;19.50;7.88;;;;;;;;;;4996292;28;20382;-67
2023/10/07 06:37:12;;;;;;;24.90;10.13;;;;;;;;;;4996260;28;20023;-67
2023/10/07 06:39:38;;;;;;;21.17;9.07;;;;;;;;;;4996488;28;20022;-66
2023/10/07 06:42:05;;;;;;;25.00;9.03;;;;;;;;;;4996058;28;20050;-66
2023/10/07 06:44:31;;;;;;;22.63;10.00;;;;;;;;;;4996115;28;20252;-66
2023/10/07 06:46:56;;;;;;;22.40;9.30;;;;;;;;;;4995714;28;20101;-66
2023/10/07 06:49:22;;;;;;;22.45;8.85;;;;;;;;;;4996258;28;20253;-66
2023/10/07 06:51:53;;;;;;;23.88;9.68;;;;;;;;;;4996005;28;20029;-67
2023/10/07 06:54:18;;;;;;;25.02;10.73;;;;;;;;;;4995895;28;20045;-67
2023/10/07 06:56:45;;;;;;;24.23;9.75;;;;;;;;;;4996160;28;20034;-67
2023/10/07 06:59:13;;;;;;;23.58;9.48;;;;;;;;;;4996124;28;20502;-66
2023/10/07 07:04:14;;;;;;;33.65;12.55;;;;;;;;;;4996084;28;20097;-67
2023/10/07 07:06:58;;;;;;;33.85;13.50;;;;;;;;;;4995722;28;20387;-67
2023/10/07 07:12:09;;;;;;;46.63;19.15;;;;;;;;;;4995948;28;20206;-67
2023/10/07 07:14:35;;;;;;;45.90;18.38;;;;;;;;;;4995521;28;20032;-67
2023/10/07 07:20:33;;;;;;;43.80;16.27;;;;;;;;;;4995504;28;20026;-67
2023/10/07 07:22:42;;;;;;;39.45;15.75;;;;;;;;;;4989768;28;20398;-67
2023/10/07 07:25:22;;;;;;;42.47;18.05;;;;;;;;;;4995625;28;20093;-66
2023/10/07 07:27:51;;;;;;;49.53;21.20;;;;;;;;;;4995233;28;20018;-66
2023/10/07 07:30:29;;;;;;;38.78;15.95;;;;;;;;;;4995340;28;20073;-66
2023/10/07 07:32:59;;;;;;;39.08;14.48;;;;;;;;;;4995162;28;20022;-67
2023/10/07 07:35:38;;;;;;;49.55;19.02;;;;;;;;;;4995226;28;20030;-67
2023/10/07 07:38:11;;;;;;;44.50;18.75;;;;;;;;;;4995358;28;20019;-66
2023/10/07 07:40:36;;;;;;;43.45;16.13;;;;;;;;;;4995313;28;20080;-67
2023/10/07 07:43:02;;;;;;;49.72;17.48;;;;;;;;;;4994958;28;20034;-67
2023/10/07 07:45:35;;;;;;;42.70;15.85;;;;;;;;;;4995252;28;20466;-67
2023/10/07 07:48:00;;;;;;;38.90;12.50;;;;;;;;;;4994846;28;20058;-67
2023/10/07 07:50:26;;;;;;;38.73;11.37;;;;;;;;;;4994923;28;20062;-67
2023/10/07 07:52:53;;;;;;;36.83;11.38;;;;;;;;;;4993670;28;20101;-67
2023/10/07 07:55:18;;;;;;;35.30;10.55;;;;;;;;;;4995008;28;20461;-67
2023/10/07 07:57:44;;;;;;;37.17;11.25;;;;;;;;;;4994745;28;20097;-67
2023/10/07 08:00:09;;;;;;;42.28;11.82;;;;;;;;;;4993994;28;20097;-67
2023/10/07 08:02:36;;;;;;;32.00;10.60;;;;;;;;;;4994832;28;20029;-67
2023/10/07 08:05:04;;;;;;;41.28;10.93;;;;;;;;;;4994678;28;20029;-67
2023/10/07 08:07:30;;;;;;;35.17;10.95;;;;;;;;;;4994569;28;20462;-67
2023/10/07 08:09:57;;;;;;;34.63;10.43;;;;;;;;;;4994298;28;20115;-67
2023/10/07 08:12:35;;;;;;;34.80;10.77;;;;;;;;;;4994752;28;20425;-66
2023/10/07 08:17:39;;;;;;;32.10;10.40;;;;;;;;;;4994439;28;20019;-67
2023/10/07 08:20:11;;;;;;;36.33;10.25;;;;;;;;;;4994619;28;20037;-67
2023/10/07 08:22:44;;;;;;;31.02;10.48;;;;;;;;;;4994348;28;20434;-67
2023/10/07 08:25:10;;;;;;;34.20;9.98;;;;;;;;;;4994569;28;20023;-66
2023/10/07 08:27:45;;;;;;;32.38;10.20;;;;;;;;;;4994259;28;20386;-67
2023/10/07 08:30:28;;;;;;;26.63;8.85;;;;;;;;;;4994509;28;20094;-66
2023/10/07 08:32:54;;;;;;;28.48;9.13;;;;;;;;;;4994256;28;20037;-67
2023/10/07 08:35:19;;;;;;;30.00;9.82;;;;;;;;;;4994243;28;20026;-67
2023/10/07 08:37:45;;;;;;;28.13;9.20;;;;;;;;;;4994353;28;20018;-66
2023/10/07 08:40:14;;;;;;;30.05;8.80;;;;;;;;;;4994346;28;20378;-66
2023/10/07 08:42:44;;;;;;;32.65;9.57;;;;;;;;;;4994210;28;20027;-66
2023/10/07 08:45:23;;;;;;;28.60;8.85;;;;;;;;;;4994007;28;20065;-67
2023/10/07 08:47:49;;;;;;;35.17;8.60;;;;;;;;;;4994258;28;20026;-66
2023/10/07 08:50:19;;;;;;;32.80;10.13;;;;;;;;;;4993945;28;20058;-66
2023/10/07 08:52:45;;;;;;;30.85;9.27;;;;;;;;;;4993891;28;20030;-66
2023/10/07 08:55:10;;;;;;;22.50;8.15;;;;;;;;;;4993827;28;20027;-66
2023/10/07 08:57:36;;;;;;;25.43;8.80;;;;;;;;;;4993878;28;20101;-66
2023/10/07 09:00:10;;;;;;;26.27;8.48;;;;;;;;;;4993821;28;20030;-66
2023/10/07 09:02:37;;;;;;;31.63;8.20;;;;;;;;;;4993991;28;20156;-66
2023/10/07 09:05:06;;;;;;;28.27;9.77;;;;;;;;;;4994117;28;20025;-66
2023/10/07 09:07:32;;;;;;;29.52;9.32;;;;;;;;;;4993919;28;20042;-66
2023/10/07 09:10:28;;;;;;;28.30;8.63;;;;;;;;;;4994465;28;20061;-66
2023/10/07 09:12:56;;;;;;;27.33;10.52;;;;;;;;;;4997692;28;20033;-66
2023/10/07 09:15:26;;;;;;;24.23;8.23;;;;;;;;;;4998005;28;20215;-67
2023/10/07 09:18:03;;;;;;;29.55;9.52;;;;;;;;;;4997677;28;20030;-66
2023/10/07 09:20:32;;;;;;;28.50;9.13;;;;;;;;;;4997694;28;20023;-67
2023/10/07 09:23:15;;;;;;;25.02;9.05;;;;;;;;;;4997549;28;20482;-66
2023/10/07 09:25:46;;;;;;;27.08;8.60;;;;;;;;;;4997729;28;20471;-67
2023/10/07 09:28:13;;;;;;;20.65;7.80;;;;;;;;;;4997863;28;20479;-67
2023/10/07 09:33:14;;;;;;;26.00;8.82;;;;;;;;;;4997816;28;20038;-67
2023/10/07 09:35:43;;;;;;;23.30;8.27;;;;;;;;;;4997703;28;20501;-67
2023/10/07 09:38:12;;;;;;;25.33;9.63;;;;;;;;;;4997618;28;20073;-67
2023/10/07 09:43:27;;;;;;;28.90;9.43;;;;;;;;;;4997536;28;20031;-67
2023/10/07 09:45:52;;;;;;;23.70;10.23;;;;;;;;;;4997520;28;20026;-67
2023/10/07 09:48:23;;;;;;;29.83;9.35;;;;;;;;;;4997465;28;20101;-66
2023/10/07 09:50:50;;;;;;;23.63;8.80;;;;;;;;;;4997444;28;20019;-67
2023/10/07 09:53:36;;;;;;;28.85;10.88;;;;;;;;;;4997352;28;20029;-67
2023/10/07 09:56:04;;;;;;;23.33;9.52;;;;;;;;;;4997192;28;20022;-67
2023/10/07 09:58:47;;;;;;;31.55;9.32;;;;;;;;;;4997254;28;20022;-67
2023/10/07 10:01:29;;;;;;;24.77;8.98;;;;;;;;;;4997182;28;20030;-67
2023/10/07 10:04:15;;;;;;;23.80;9.57;;;;;;;;;;4996933;28;20026;-67
2023/10/07 10:06:50;;;;;;;28.15;10.45;;;;;;;;;;4996635;28;20126;-67
2023/10/07 10:09:23;;;;;;;24.35;9.25;;;;;;;;;;4996865;28;20055;-67
2023/10/07 10:11:55;;;;;;;29.75;9.40;;;;;;;;;;4996751;28;20550;-67
2023/10/07 10:14:39;;;;;;;29.48;9.45;;;;;;;;;;4996701;28;20101;-67
2023/10/07 10:17:11;;;;;;;24.38;8.88;;;;;;;;;;4996616;28;20025;-67
2023/10/07 10:19:47;;;;;;;;;;;;;;;;;;4996998;28;20081;-67
2023/10/07 10:22:22;;;;;;;28.75;9.20;;;;;;;;;;4995652;28;19909;-67
2023/10/07 10:24:47;;;;;;;25.52;8.95;;;;;;;;;;4996785;28;20470;-67
2023/10/07 10:27:13;;;;;;;24.50;8.15;;;;;;;;;;4996752;28;20022;-67
2023/10/07 10:30:03;;;;;;;30.33;9.65;;;;;;;;;;4996700;28;20019;-66
2023/10/07 10:32:29;;;;;;;31.20;9.63;;;;;;;;;;4996390;28;20014;-67
2023/10/07 10:34:55;;;;;;;26.02;8.32;;;;;;;;;;4996580;28;20034;-67
2023/10/07 10:37:23;;;;;;;26.92;8.20;;;;;;;;;;4996484;28;20514;-67
2023/10/07 10:39:48;;;;;;;30.20;9.75;;;;;;;;;;4996299;28;20426;-66
2023/10/07 10:42:14;;;;;;;27.85;9.63;;;;;;;;;;4996505;28;20098;-66
2023/10/07 10:44:39;;;;;;;32.20;9.47;;;;;;;;;;4996132;28;20498;-67
2023/10/07 10:47:06;;;;;;;30.85;10.00;;;;;;;;;;4996106;28;20245;-66
2023/10/07 10:49:32;;;;;;;26.33;9.18;;;;;;;;;;4996020;28;20037;-67
2023/10/07 10:51:59;;;;;;;27.40;8.45;;;;;;;;;;4996264;28;20022;-67
2023/10/07 10:54:24;;;;;;;23.20;8.25;;;;;;;;;;4995879;28;20031;-67
2023/10/07 10:56:57;;;;;;;28.20;7.45;;;;;;;;;;4996144;28;20026;-67
2023/10/07 10:59:35;;;;;;;19.80;8.10;;;;;;;;;;4995848;28;20026;-66
2023/10/07 11:02:01;;;;;;;32.47;8.18;;;;;;;;;;4996017;28;20117;-67
2023/10/07 11:04:27;;;;;;;19.00;6.85;;;;;;;;;;4996050;28;20427;-67
2023/10/07 11:06:54;;;;;;;21.75;7.63;;;;;;;;;;4995796;28;20097;-67
2023/10/07 11:09:26;;;;;;;23.70;7.45;;;;;;;;;;4994306;28;20101;-67
2023/10/07 11:11:53;;;;;;;20.17;7.38;;;;;;;;;;4995635;28;20117;-67
2023/10/07 11:14:20;;;;;;;21.00;7.55;;;;;;;;;;4995828;28;20491;-67
2023/10/07 11:16:46;;;;;;;20.75;8.20;;;;;;;;;;4995625;28;20026;-67
2023/10/07 11:19:11;;;;;;;22.02;6.97;;;;;;;;;;4995786;28;20038;-67
2023/10/07 11:21:39;;;;;;;17.52;6.57;;;;;;;;;;4995371;28;20018;-67
2023/10/07 11:24:06;;;;;;;28.85;7.65;;;;;;;;;;4995373;28;20022;-67
2023/10/07 11:26:32;;;;;;;23.00;7.43;;;;;;;;;;4995308;28;20026;-67
2023/10/07 11:28:58;;;;;;;21.35;7.10;;;;;;;;;;4995322;28;20028;-67
2023/10/07 11:31:30;;;;;;;19.45;6.70;;;;;;;;;;4995760;28;20041;-67
2023/10/07 11:33:56;;;;;;;;;;;;;;;;;;4994654;28;20084;-67
2023/10/07 11:36:22;;;;;;;27.75;7.78;;;;;;;;;;4995171;28;20357;-67
2023/10/07 11:38:48;;;;;;;20.42;7.30;;;;;;;;;;4995431;28;20093;-67
2023/10/07 11:41:16;;;;;;;22.57;7.10;;;;;;;;;;4995144;28;20478;-67
2023/10/07 11:43:43;;;;;;;27.20;6.95;;;;;;;;;;4995274;28;20042;-67
2023/10/07 11:46:10;;;;;;;19.52;6.40;;;;;;;;;;4994978;28;20033;-67
2023/10/07 11:48:36;;;;;;;21.27;6.70;;;;;;;;;;4995211;28;20442;-67
2023/10/07 11:51:01;;;;;;;19.73;7.07;;;;;;;;;;4995263;28;20026;-67
2023/10/07 11:53:26;;;;;;;16.42;6.88;;;;;;;;;;4994826;28;20018;-67
2023/10/07 11:55:51;;;;;;;27.97;7.40;;;;;;;;;;4994718;28;20026;-67
2023/10/07 11:58:17;;;;;;;19.70;6.27;;;;;;;;;;4994812;28;20253;-67
2023/10/07 12:00:43;;;;;;;18.75;7.28;;;;;;;;;;4995019;28;20264;-67
2023/10/07 12:03:08;;;;;;;20.20;7.78;;;;;;;;;;4994584;28;20026;-67
2023/10/07 12:05:34;;;;;;;23.37;7.67;;;;;;;;;;4994644;28;20029;-67
2023/10/07 12:08:01;;;;;;;18.33;7.65;;;;;;;;;;4994835;28;20272;-67
2023/10/07 12:10:36;;;;;;;21.98;6.95;;;;;;;;;;4994425;28;20514;-67
2023/10/07 12:13:03;;;;;;;18.65;7.55;;;;;;;;;;4994809;28;20022;-67
2023/10/07 12:15:29;;;;;;;17.08;6.95;;;;;;;;;;4994414;28;20028;-67
2023/10/07 12:17:54;;;;;;;23.83;7.20;;;;;;;;;;4994402;28;20034;-67
2023/10/07 12:20:21;;;;;;;19.88;6.60;;;;;;;;;;4994638;28;20105;-67
2023/10/07 12:22:46;;;;;;;22.67;7.13;;;;;;;;;;4994559;28;20412;-67
2023/10/07 12:25:16;;;;;;;17.95;6.13;;;;;;;;;;4994313;28;20097;-67
2023/10/07 12:27:47;;;;;;;23.83;6.40;;;;;;;;;;4994540;28;20068;-67
2023/10/07 12:30:14;;;;;;;17.38;6.47;;;;;;;;;;4994551;28;20474;-67
2023/10/07 12:32:41;;;;;;;21.27;6.40;;;;;;;;;;4994478;28;20493;-67
2023/10/07 12:35:09;;;;;;;21.83;6.70;;;;;;;;;;4994430;28;20108;-67
2023/10/07 12:37:34;;;;;;;25.90;6.63;;;;;;;;;;4994385;28;20482;-67
2023/10/07 12:40:01;;;;;;;25.23;7.10;;;;;;;;;;4994065;28;20026;-67
2023/10/07 12:42:27;;;;;;;16.88;6.95;;;;;;;;;;4993938;28;20023;-67
2023/10/07 12:44:52;;;;;;;19.30;6.38;;;;;;;;;;4993984;28;20394;-67
2023/10/07 12:47:18;;;;;;;26.43;7.67;;;;;;;;;;4994023;28;20014;-67
2023/10/07 12:49:45;;;;;;;19.80;7.32;;;;;;;;;;4994002;28;20736;-67
2023/10/07 12:52:11;;;;;;;18.73;7.70;;;;;;;;;;4993923;28;20065;-67
2023/10/07 12:54:36;;;;;;;21.45;7.85;;;;;;;;;;4994126;28;20058;-67
2023/10/07 12:57:03;;;;;;;20.08;7.05;;;;;;;;;;4993991;28;20026;-67
2023/10/07 12:59:35;;;;;;;20.77;7.65;;;;;;;;;;4994083;28;20445;-67
2023/10/07 13:02:03;;;;;;;18.80;7.25;;;;;;;;;;4994159;28;20049;-67
2023/10/07 13:04:34;;;;;;;16.48;6.78;;;;;;;;;;4994094;28;20364;-67
2023/10/07 13:07:10;;;;;;;15.60;6.22;;;;;;;;;;4993815;28;20029;-67
2023/10/07 13:09:40;;;;;;;13.07;4.82;;;;;;;;;;4993619;28;20050;-67
2023/10/07 13:12:11;;;;;;;21.50;5.18;;;;;;;;;;4993795;28;20022;-67
2023/10/07 13:14:40;;;;;;;18.30;5.28;;;;;;;;;;4994013;28;20084;-67
2023/10/07 13:17:06;;;;;;;14.13;5.03;;;;;;;;;;4993998;28;20597;-67
2023/10/07 13:19:35;;;;;;;14.75;4.70;;;;;;;;;;4993808;28;20030;-67
2023/10/07 13:22:01;;;;;;;18.65;4.90;;;;;;;;;;4993926;28;20110;-67
2023/10/07 13:24:27;;;;;;;27.48;5.55;;;;;;;;;;4993720;28;20073;-67
2023/10/07 13:26:52;;;;;;;15.93;4.85;;;;;;;;;;4993899;28;20027;-67
2023/10/07 13:29:17;;;;;;;16.33;4.75;;;;;;;;;;4993731;28;20021;-67
2023/10/07 13:31:43;;;;;;;18.53;5.07;;;;;;;;;;4993900;28;20165;-67
2023/10/07 13:34:09;;;;;;;15.52;4.72;;;;;;;;;;4993857;28;20248;-67
2023/10/07 13:36:37;;;;;;;17.08;5.25;;;;;;;;;;4993616;28;20167;-67
2023/10/07 13:39:03;;;;;;;10.82;3.78;;;;;;;;;;4993576;28;20014;-67
2023/10/07 13:41:29;;;;;;;13.93;4.30;;;;;;;;;;4993482;28;20026;-67
2023/10/07 13:43:54;;;;;;;20.95;3.85;;;;;;;;;;4993801;28;20030;-67
2023/10/07 13:46:19;;;;;;;12.70;4.13;;;;;;;;;;4993762;28;20018;-67
2023/10/07 13:48:44;;;;;;;15.37;4.47;;;;;;;;;;4993552;28;20026;-67
2023/10/07 13:51:10;;;;;;;17.15;4.07;;;;;;;;;;4993667;28;20429;-67
2023/10/07 13:57:09;;;;;;;15.50;4.60;;;;;;;;;;4993725;28;20390;-67
2023/10/07 13:59:05;;;;;;;14.43;4.05;;;;;;;;;;4989730;28;20486;-67
2023/10/07 14:01:30;;;;;;;14.73;4.53;;;;;;;;;;4996847;28;20086;-67
2023/10/07 14:03:55;;;;;;;11.13;3.97;;;;;;;;;;4996894;28;20023;-67
2023/10/07 14:06:21;;;;;;;18.23;4.53;;;;;;;;;;4996922;28;20248;-67
2023/10/07 14:08:50;;;;;;;14.20;4.40;;;;;;;;;;4996768;28;20068;-67
2023/10/07 14:11:15;;;;;;;13.75;4.65;;;;;;;;;;4997199;28;20038;-67
2023/10/07 14:13:46;;;;;;;15.23;3.73;;;;;;;;;;4996765;28;20497;-67
2023/10/07 14:16:17;;;;;;;18.13;4.38;;;;;;;;;;4996990;28;20422;-67
2023/10/07 14:18:42;;;;;;;15.40;4.90;;;;;;;;;;4996601;28;20022;-67
2023/10/07 14:21:09;;;;;;;15.23;4.53;;;;;;;;;;4996774;28;20029;-67
2023/10/07 14:23:35;;;;;;;15.90;4.15;;;;;;;;;;4996541;28;20030;-67
2023/10/07 14:26:03;;;;;;;13.18;4.68;;;;;;;;;;4996520;28;20042;-67
2023/10/07 14:28:29;;;;;;;18.90;4.03;;;;;;;;;;4996693;28;20378;-67
2023/10/07 14:30:55;;;;;;;13.90;4.47;;;;;;;;;;4996430;28;20026;-67
2023/10/07 14:33:21;;;;;;;14.27;4.00;;;;;;;;;;4996663;28;20545;-67
2023/10/07 14:35:50;;;;;;;9.40;3.15;;;;;;;;;;4996338;28;20026;-67
2023/10/07 14:38:16;;;;;;;13.25;3.70;;;;;;;;;;4996362;28;20533;-67
2023/10/07 14:40:43;;;;;;;11.95;4.10;;;;;;;;;;4996525;28;20026;-67
2023/10/07 14:43:12;;;;;;;16.48;4.47;;;;;;;;;;4996336;28;20030;-67
2023/10/07 14:45:38;;;;;;;10.40;3.88;;;;;;;;;;4996424;28;20018;-67
2023/10/07 14:48:04;;;;;;;12.50;4.20;;;;;;;;;;4996147;28;20424;-67
2023/10/07 14:50:33;;;;;;;16.95;4.30;;;;;;;;;;4996348;28;20018;-67
2023/10/07 14:52:59;;;;;;;11.65;4.07;;;;;;;;;;4996282;28;20068;-67
2023/10/07 14:55:24;;;;;;;11.77;4.10;;;;;;;;;;4995966;28;20483;-67
2023/10/07 14:57:49;;;;;;;11.90;3.87;;;;;;;;;;4995987;28;20061;-67
2023/10/07 15:00:16;;;;;;;12.48;4.03;;;;;;;;;;4995909;28;20114;-67
2023/10/07 15:02:44;;;;;;;10.50;3.67;;;;;;;;;;4996039;28;20105;-67
2023/10/07 15:05:10;;;;;;;14.75;4.20;;;;;;;;;;4996083;28;20098;-67
2023/10/07 15:07:35;;;;;;;14.57;3.75;;;;;;;;;;4995451;28;20065;-67
2023/10/07 15:10:00;;;;;;;30.50;4.77;;;;;;;;;;4995628;28;20114;-67
2023/10/07 15:12:26;;;;;;;8.15;2.90;;;;;;;;;;4995946;28;20041;-67
2023/10/07 15:14:52;;;;;;;11.48;3.90;;;;;;;;;;4995638;28;20030;-67
2023/10/07 15:17:17;;;;;;;17.55;3.95;;;;;;;;;;4995571;28;20109;-67